createdAt,value
2023-05-24T04:31:33.161Z,19.5101
2023-05-24T04:32:35.000Z,19.1327
2023-05-24T04:33:37.036Z,19.1826
2023-05-24T04:34:39.164Z,19.3129
2023-05-24T04:35:41.114Z,19.4534
2023-05-24T04:36:43.148Z,19.5554
2023-05-24T04:37:45.217Z,19.6701
2023-05-24T04:38:47.278Z,19.7452
2023-05-24T04:39:49.379Z,19.8408
2023-05-24T04:40:51.345Z,19.9451
2023-05-24T04:41:53.407Z,20.0293
2023-05-24T04:42:55.420Z,19.9965
2023-05-24T04:43:57.449Z,20.0848
2023-05-24T04:44:59.514Z,20.1897
2023-05-24T04:46:01.559Z,20.2581
2023-05-24T04:47:03.687Z,20.2869
2023-05-24T04:48:05.696Z,20.3327
2023-05-24T04:49:07.673Z,20.3619
2023-05-24T04:50:09.761Z,20.3826
2023-05-24T04:51:11.781Z,20.4038
2023-05-24T04:52:13.838Z,20.4157
2023-05-24T04:53:15.871Z,20.4432
2023-05-24T04:54:17.914Z,20.4677
2023-05-24T04:55:19.949Z,20.4839
2023-05-24T04:56:21.989Z,20.5050
2023-05-24T04:57:24.035Z,20.5336
2023-05-24T04:58:26.087Z,20.5644
2023-05-24T04:59:28.111Z,20.5886
2023-05-24T05:00:30.174Z,20.5835
2023-05-24T05:01:32.222Z,20.5700
2023-05-24T05:02:34.301Z,20.5925
2023-05-24T05:03:36.412Z,20.6086
2023-05-24T05:04:38.326Z,20.6229
2023-05-24T05:05:40.376Z,20.6277
2023-05-24T05:06:42.442Z,20.6287
2023-05-24T05:07:44.496Z,20.6020
2023-05-24T05:08:46.519Z,20.5381
2023-05-24T05:09:48.588Z,20.5923
2023-05-24T05:10:50.633Z,20.6114
2023-05-24T05:11:52.672Z,20.6166
2023-05-24T05:12:54.706Z,20.6593
2023-05-24T05:13:56.798Z,20.6642
2023-05-24T05:14:58.796Z,20.6805
2023-05-24T05:16:00.882Z,20.6342
2023-05-24T05:17:02.912Z,20.6004
2023-05-24T05:18:04.991Z,20.5685
2023-05-24T05:19:07.007Z,20.5821
2023-05-24T05:20:09.133Z,20.6219
2023-05-24T05:21:11.070Z,20.6151
2023-05-24T05:22:13.114Z,20.5946
2023-05-24T05:23:15.287Z,20.6188
2023-05-24T05:24:17.243Z,20.5884
2023-05-24T05:25:19.277Z,20.5868
2023-05-24T05:26:21.313Z,20.6174
2023-05-24T05:27:23.355Z,20.6061
2023-05-24T05:28:25.398Z,20.5773
2023-05-24T05:29:27.424Z,20.5644
2023-05-24T05:30:29.513Z,20.5373
2023-05-24T05:31:31.538Z,20.4788
2023-05-24T05:32:33.633Z,20.5077
2023-05-24T05:33:35.643Z,20.5188
2023-05-24T05:34:37.671Z,20.4666
2023-05-24T05:35:39.718Z,20.4685
2023-05-24T05:36:41.754Z,20.5016
2023-05-24T05:37:43.852Z,20.5408
2023-05-24T05:38:45.830Z,20.5508
2023-05-24T05:39:47.913Z,20.5599
2023-05-24T05:40:49.949Z,20.6059
2023-05-24T05:41:51.987Z,20.6394
2023-05-24T05:42:54.025Z,20.6681
2023-05-24T05:43:56.347Z,20.6624
2023-05-24T05:44:58.166Z,20.6538
2023-05-24T05:46:00.230Z,20.6254
2023-05-24T05:47:02.254Z,20.6720
2023-05-24T05:48:04.334Z,20.7031
2023-05-24T05:49:06.398Z,20.7429
2023-05-24T05:50:08.406Z,20.7287
2023-05-24T05:51:10.450Z,20.7591
2023-05-24T05:52:12.482Z,20.8325
2023-05-24T05:53:14.523Z,20.8898
2023-05-24T05:54:16.601Z,20.9021
2023-05-24T05:55:18.594Z,20.8803
2023-05-24T05:56:20.647Z,20.8900
2023-05-24T05:57:22.753Z,20.9461
2023-05-24T05:58:24.757Z,20.9828
2023-05-24T05:59:26.804Z,21.0603
2023-05-24T06:00:28.957Z,21.0886
2023-05-24T06:01:30.866Z,21.0734
2023-05-24T06:02:32.970Z,21.0740
2023-05-24T06:03:35.200Z,21.0514
2023-05-24T06:04:37.059Z,21.0806
2023-05-24T06:05:39.063Z,21.0621
2023-05-24T06:06:41.154Z,21.1048
2023-05-24T06:07:43.165Z,21.1042
2023-05-24T06:08:45.282Z,21.1032
2023-05-24T06:09:47.310Z,21.0822
2023-05-24T06:10:52.039Z,20.9341
2023-05-24T06:11:51.389Z,20.8228
2023-05-24T06:12:53.473Z,20.8411
2023-05-24T06:13:55.457Z,20.8573
2023-05-24T06:14:57.561Z,20.9050
2023-05-24T06:15:59.566Z,20.8622
2023-05-24T06:17:01.690Z,20.8316
2023-05-24T06:18:03.819Z,20.7982
2023-05-24T06:19:06.603Z,20.8296
2023-05-24T06:20:07.764Z,20.8836
2023-05-24T06:21:09.807Z,20.8811
2023-05-24T06:22:11.807Z,20.7941
2023-05-24T06:23:14.016Z,20.8321
2023-05-24T06:24:15.901Z,20.8263
2023-05-24T06:25:18.008Z,20.7992
2023-05-24T06:26:20.002Z,20.8205
2023-05-24T06:27:22.151Z,20.7938
2023-05-24T06:28:24.080Z,20.7969
2023-05-24T06:29:26.154Z,20.7943
2023-05-24T06:30:28.385Z,20.8267
2023-05-24T06:31:30.221Z,20.8388
2023-05-24T06:32:32.380Z,20.7986
2023-05-24T06:33:35.766Z,20.8008
2023-05-24T06:34:36.371Z,20.8068
2023-05-24T06:35:38.413Z,20.7287
2023-05-24T06:36:40.465Z,20.6548
2023-05-24T06:37:42.497Z,20.7117
2023-05-24T06:38:44.514Z,20.7357
2023-05-24T06:39:46.626Z,20.7162
2023-05-24T06:40:48.605Z,20.7000
2023-05-24T06:41:50.659Z,20.6412
2023-05-24T06:42:52.736Z,20.6281
2023-05-24T06:43:54.772Z,20.6020
2023-05-24T06:44:56.841Z,20.5506
2023-05-24T06:45:58.884Z,20.4824
2023-05-24T06:47:01.007Z,20.5798
2023-05-24T06:48:05.024Z,20.6821
2023-05-24T06:49:05.054Z,20.6392
2023-05-24T06:50:07.033Z,20.6566
2023-05-24T06:51:09.091Z,20.7322
2023-05-24T06:52:11.130Z,20.7673
2023-05-24T06:53:13.236Z,20.7217
2023-05-24T06:54:15.243Z,20.7655
2023-05-24T06:55:17.254Z,20.7682
2023-05-24T06:56:19.322Z,20.7431
2023-05-24T06:57:21.355Z,20.5903
2023-05-24T06:58:23.392Z,20.6303
2023-05-24T06:59:25.473Z,20.5771
2023-05-24T07:00:27.583Z,20.5272
2023-05-24T07:01:29.671Z,20.6201
2023-05-24T07:02:31.622Z,20.7094
2023-05-24T07:03:33.642Z,20.6918
2023-05-24T07:04:37.532Z,20.6850
2023-05-24T07:05:37.719Z,20.6842
2023-05-24T07:06:39.829Z,20.6735
2023-05-24T07:07:41.817Z,20.5860
2023-05-24T07:08:43.833Z,20.5835
2023-05-24T07:09:45.896Z,20.6211
2023-05-24T07:10:48.119Z,20.6283
2023-05-24T07:11:50.020Z,20.6735
2023-05-24T07:12:52.016Z,20.6572
2023-05-24T07:13:54.076Z,20.6318
2023-05-24T07:14:56.120Z,20.6727
2023-05-24T07:15:58.158Z,20.7259
2023-05-24T07:17:00.340Z,20.7250
2023-05-24T07:18:02.342Z,20.7994
2023-05-24T07:19:04.949Z,20.8210
2023-05-24T07:20:06.359Z,20.8216
2023-05-24T07:21:08.404Z,20.8321
2023-05-24T07:22:10.496Z,20.7669
2023-05-24T07:23:12.552Z,20.7949
2023-05-24T07:24:16.229Z,20.7949
2023-05-24T07:25:16.581Z,20.7589
2023-05-24T07:26:18.644Z,20.7388
2023-05-24T07:27:20.650Z,20.6702
2023-05-24T07:28:22.741Z,20.5860
2023-05-24T07:29:24.981Z,20.5322
2023-05-24T07:30:32.301Z,20.5480
2023-05-24T07:31:28.870Z,20.5100
2023-05-24T07:32:30.990Z,20.5502
2023-05-24T07:33:33.040Z,20.5472
2023-05-24T07:34:35.027Z,20.5706
2023-05-24T07:35:37.087Z,20.5938
2023-05-24T07:36:39.301Z,20.4818
2023-05-24T07:37:41.228Z,20.4223
2023-05-24T07:38:43.328Z,20.3980
2023-05-24T07:39:45.224Z,20.3839
2023-05-24T07:40:47.340Z,20.4194
2023-05-24T07:41:49.330Z,20.4833
2023-05-24T07:42:51.416Z,20.4872
2023-05-24T07:43:53.478Z,20.4864
2023-05-24T07:44:55.549Z,20.4880
2023-05-24T07:45:57.522Z,20.3091
2023-05-24T07:46:59.731Z,20.3510
2023-05-24T07:48:01.861Z,20.3765
2023-05-24T07:49:03.673Z,20.4882
2023-05-24T07:50:06.065Z,20.5979
2023-05-24T07:51:08.059Z,20.6979
2023-05-24T07:52:09.784Z,20.7700
2023-05-24T07:53:11.853Z,20.8247
2023-05-24T07:54:13.894Z,20.8491
2023-05-24T07:55:15.940Z,20.8335
2023-05-24T07:56:17.953Z,20.7614
2023-05-24T07:57:20.035Z,20.7291
2023-05-24T07:58:22.093Z,20.7094
2023-05-24T07:59:24.106Z,20.7086
2023-05-24T08:00:26.259Z,20.6069
2023-05-24T08:01:28.213Z,20.5923
2023-05-24T08:02:30.439Z,20.4919
2023-05-24T08:03:32.379Z,20.5094
2023-05-24T08:04:34.367Z,20.4523
2023-05-24T08:05:36.562Z,20.3500
2023-05-24T08:06:38.496Z,20.4426
2023-05-24T08:07:40.469Z,20.4520
2023-05-24T08:08:42.555Z,20.4985
2023-05-24T08:09:44.651Z,20.4952
2023-05-24T08:10:46.604Z,20.5112
2023-05-24T08:11:48.664Z,20.5973
2023-05-24T08:12:50.667Z,20.6677
2023-05-24T08:13:52.721Z,20.7183
2023-05-24T08:14:55.272Z,20.7846
2023-05-24T08:15:56.879Z,20.8520
2023-05-24T08:16:58.887Z,20.8099
2023-05-24T08:18:00.973Z,20.7558
2023-05-24T08:19:03.017Z,20.7304
2023-05-24T08:20:05.084Z,20.6835
2023-05-24T08:21:07.035Z,20.6805
2023-05-24T08:22:09.239Z,20.7053
2023-05-24T08:23:11.351Z,20.7281
2023-05-24T08:24:13.186Z,20.7571
2023-05-24T08:25:16.974Z,20.8002
2023-05-24T08:26:17.486Z,20.8306
2023-05-24T08:27:19.314Z,20.8493
2023-05-24T08:28:21.484Z,20.8608
2023-05-24T08:29:23.423Z,20.8777
2023-05-24T08:30:25.734Z,20.8986
2023-05-24T08:31:27.564Z,20.9245
2023-05-24T08:32:29.587Z,20.9292
2023-05-24T08:33:31.630Z,20.9594
2023-05-24T08:34:33.747Z,20.9590
2023-05-24T08:35:35.776Z,20.9510
2023-05-24T08:36:37.831Z,20.9107
2023-05-24T08:37:39.955Z,20.8760
2023-05-24T08:38:41.927Z,20.8902
2023-05-24T08:39:44.120Z,20.9280
2023-05-24T08:40:46.076Z,20.9033
2023-05-24T08:42:01.026Z,20.9282
2023-05-24T08:42:50.151Z,20.9703
2023-05-24T08:43:52.185Z,20.9463
2023-05-24T08:44:54.205Z,20.9272
2023-05-24T08:45:56.282Z,20.9128
2023-05-24T08:46:58.369Z,20.8696
2023-05-24T08:48:00.463Z,20.8242
2023-05-24T08:49:02.548Z,20.7700
2023-05-24T08:50:04.499Z,20.7918
2023-05-24T08:51:06.630Z,20.7639
2023-05-24T08:52:08.642Z,20.7799
2023-05-24T08:53:10.573Z,20.7308
2023-05-24T08:54:12.662Z,20.6948
2023-05-24T08:55:14.680Z,20.7133
2023-05-24T08:56:16.780Z,20.6955
2023-05-24T08:57:18.756Z,20.6803
2023-05-24T08:58:20.838Z,20.5773
2023-05-24T08:59:22.856Z,20.6490
2023-05-24T09:00:24.931Z,20.6930
2023-05-24T09:01:28.953Z,20.6597
2023-05-24T09:02:29.007Z,20.6706
2023-05-24T09:03:31.148Z,20.6564
2023-05-24T09:04:33.109Z,20.6472
2023-05-24T09:05:35.168Z,20.5603
2023-05-24T09:06:37.191Z,20.5582
2023-05-24T09:07:39.259Z,20.6503
2023-05-24T09:08:43.628Z,20.4874
2023-05-24T09:09:43.323Z,20.5954
2023-05-24T09:10:54.554Z,20.6538
2023-05-24T09:11:47.423Z,20.6394
2023-05-24T09:12:49.470Z,20.5971
2023-05-24T09:13:51.488Z,20.6474
2023-05-24T09:14:53.621Z,20.7417
2023-05-24T09:15:55.661Z,20.6973
2023-05-24T09:16:57.665Z,20.7037
2023-05-24T09:17:59.702Z,20.7620
2023-05-24T09:19:01.747Z,20.7918
2023-05-24T09:20:03.856Z,20.8154
2023-05-24T09:21:05.866Z,20.8898
2023-05-24T09:22:08.202Z,20.9378
2023-05-24T09:23:10.032Z,20.9348
2023-05-24T09:24:11.995Z,20.9481
2023-05-24T09:25:14.083Z,20.9311
2023-05-24T09:26:16.120Z,20.8811
2023-05-24T09:27:18.122Z,20.7423
2023-05-24T09:28:20.167Z,20.7883
2023-05-24T09:29:22.359Z,20.8464
2023-05-24T09:30:24.279Z,20.8460
2023-05-24T09:31:26.344Z,20.8990
2023-05-24T09:32:28.437Z,20.9319
2023-05-24T09:33:30.393Z,20.9019
2023-05-24T09:34:32.407Z,20.8129
2023-05-24T09:35:34.645Z,20.7306
2023-05-24T09:36:36.545Z,20.7080
2023-05-24T09:37:38.757Z,20.7468
2023-05-24T09:38:40.691Z,20.7731
2023-05-24T09:39:42.701Z,20.8267
2023-05-24T09:40:44.727Z,20.8179
2023-05-24T09:41:46.910Z,20.8121
2023-05-24T09:42:49.834Z,20.7497
2023-05-24T09:43:50.896Z,20.7651
2023-05-24T09:44:53.184Z,20.8051
2023-05-24T09:45:54.960Z,20.7511
2023-05-24T09:46:57.027Z,20.7131
2023-05-24T09:47:59.137Z,20.6950
2023-05-24T09:49:01.081Z,20.7254
2023-05-24T09:50:03.165Z,20.7429
2023-05-24T09:51:05.196Z,20.7310
2023-05-24T09:52:07.305Z,20.7240
2023-05-24T09:53:09.289Z,20.6751
2023-05-24T09:54:11.296Z,20.7039
2023-05-24T09:55:13.366Z,20.7193
2023-05-24T09:56:15.430Z,20.8464
2023-05-24T09:57:17.427Z,20.9159
2023-05-24T09:58:19.484Z,20.9514
2023-05-24T09:59:21.553Z,20.9744
2023-05-24T10:00:23.658Z,20.8900
2023-05-24T10:01:25.688Z,20.8150
2023-05-24T10:02:31.369Z,20.8832
2023-05-24T10:03:29.864Z,20.8142
2023-05-24T10:04:31.861Z,20.6665
2023-05-24T10:05:33.938Z,20.5529
2023-05-24T10:06:35.871Z,20.4590
2023-05-24T10:07:37.903Z,20.4958
2023-05-24T10:08:40.046Z,20.5065
2023-05-24T10:09:42.022Z,20.4810
2023-05-24T10:10:44.456Z,20.3650
2023-05-24T10:11:46.275Z,20.3719
2023-05-24T10:12:48.322Z,20.3132
2023-05-24T10:13:50.214Z,20.2208
2023-05-24T10:14:52.330Z,20.2080
2023-05-24T10:15:54.407Z,20.3179
2023-05-24T10:16:56.389Z,20.3231
2023-05-24T10:17:58.583Z,20.3748
2023-05-24T10:19:00.447Z,20.3808
2023-05-24T10:20:02.556Z,20.5102
2023-05-24T10:21:04.762Z,20.6094
2023-05-24T10:22:06.592Z,20.6749
2023-05-24T10:23:08.628Z,20.5467
2023-05-24T10:24:10.733Z,20.6256
2023-05-24T10:25:12.835Z,20.6961
2023-05-24T10:26:14.833Z,20.5985
2023-05-24T10:27:16.967Z,20.4344
2023-05-24T10:28:18.923Z,20.4720
2023-05-24T10:29:20.938Z,20.5969
2023-05-24T10:30:23.005Z,20.5472
2023-05-24T10:31:25.127Z,20.3785
2023-05-24T10:32:27.203Z,20.5038
2023-05-24T10:33:29.166Z,20.6480
2023-05-24T10:34:31.232Z,20.6529
2023-05-24T10:35:33.246Z,20.5605
2023-05-24T10:36:35.308Z,20.5385
2023-05-24T10:37:38.010Z,20.4792
2023-05-24T10:38:39.434Z,20.5872
2023-05-24T10:39:41.475Z,20.6277
2023-05-24T10:40:43.503Z,20.7645
2023-05-24T10:41:45.608Z,20.7351
2023-05-24T10:42:47.685Z,20.6798
2023-05-24T10:44:07.301Z,20.6848
2023-05-24T10:44:51.743Z,20.6116
2023-05-24T10:45:53.838Z,20.7039
2023-05-24T10:46:55.876Z,20.7986
2023-05-24T10:47:57.907Z,20.8472
2023-05-24T10:48:59.931Z,20.9062
2023-05-24T10:50:02.008Z,20.8269
2023-05-24T10:51:04.210Z,20.7990
2023-05-24T10:52:06.062Z,20.6817
2023-05-24T10:53:08.119Z,20.6164
2023-05-24T10:54:10.191Z,20.7289
2023-05-24T10:55:12.241Z,20.7791
2023-05-24T10:56:14.290Z,20.7314
2023-05-24T10:57:16.350Z,20.6868
2023-05-24T10:58:18.372Z,20.7109
2023-05-24T10:59:20.416Z,20.6842
2023-05-24T11:00:33.683Z,20.7209
2023-05-24T11:01:24.593Z,20.7789
2023-05-24T11:02:26.650Z,20.8982
2023-05-24T11:03:28.923Z,20.9838
2023-05-24T11:04:30.700Z,20.9974
2023-05-24T11:05:32.751Z,20.9990
2023-05-24T11:06:34.811Z,21.0744
2023-05-24T11:07:36.854Z,21.0545
2023-05-24T11:08:38.921Z,21.1151
2023-05-24T11:09:40.944Z,21.1564
2023-05-24T11:10:43.380Z,21.1691
2023-05-24T11:11:45.023Z,20.9399
2023-05-24T11:12:47.125Z,20.8965
2023-05-24T11:13:49.153Z,20.8518
2023-05-24T11:14:51.231Z,20.8242
2023-05-24T11:15:53.281Z,20.7162
2023-05-24T11:16:55.385Z,20.7556
2023-05-24T11:17:57.522Z,20.8031
2023-05-24T11:18:59.408Z,20.7684
2023-05-24T11:20:01.511Z,20.8542
2023-05-24T11:21:04.097Z,20.8401
2023-05-24T11:22:05.561Z,20.7780
2023-05-24T11:23:07.593Z,20.7844
2023-05-24T11:24:09.768Z,20.8076
2023-05-24T11:25:11.692Z,20.8360
2023-05-24T11:26:13.775Z,20.8507
2023-05-24T11:27:15.810Z,20.8666
2023-05-24T11:28:17.900Z,20.8364
2023-05-24T11:29:19.911Z,20.8066
2023-05-24T11:30:21.935Z,20.8171
2023-05-24T11:31:24.035Z,20.7719
2023-05-24T11:32:26.151Z,20.7793
2023-05-24T11:33:28.097Z,20.8078
2023-05-24T11:34:30.116Z,20.8436
2023-05-24T11:35:32.197Z,20.8456
2023-05-24T11:36:34.235Z,20.8357
2023-05-24T11:37:46.135Z,20.8485
2023-05-24T11:38:38.318Z,20.8360
2023-05-24T11:39:40.399Z,20.8296
2023-05-24T11:40:42.675Z,20.8362
2023-05-24T11:41:44.513Z,20.8302
2023-05-24T11:42:46.548Z,20.8019
2023-05-24T11:43:48.603Z,20.7630
2023-05-24T11:44:51.017Z,20.7452
2023-05-24T11:45:52.802Z,20.7682
2023-05-24T11:46:54.781Z,20.7624
2023-05-24T11:47:56.854Z,20.7306
2023-05-24T11:48:58.804Z,20.7579
2023-05-24T11:50:00.847Z,20.7926
2023-05-24T11:51:02.895Z,20.7505
2023-05-24T11:52:04.966Z,20.7727
2023-05-24T11:53:07.027Z,20.8031
2023-05-24T11:54:09.052Z,20.7893
2023-05-24T11:55:11.115Z,20.7634
2023-05-24T11:56:13.136Z,20.7643
2023-05-24T11:57:15.164Z,20.8099
2023-05-24T11:58:17.253Z,20.8378
2023-05-24T11:59:19.279Z,20.7197
2023-05-24T12:00:21.526Z,20.7717
2023-05-24T12:01:23.584Z,20.8238
2023-05-24T12:02:25.443Z,20.8392
2023-05-24T12:03:27.618Z,20.8380
2023-05-24T12:04:29.742Z,20.8641
2023-05-24T12:05:31.558Z,20.8906
2023-05-24T12:06:33.597Z,20.8947
2023-05-24T12:07:35.690Z,20.8713
2023-05-24T12:08:37.678Z,20.8686
2023-05-24T12:09:39.758Z,20.9046
2023-05-24T12:10:41.991Z,20.9471
2023-05-24T12:11:43.870Z,20.9707
2023-05-24T12:12:46.335Z,21.0110
2023-05-24T12:13:47.917Z,21.0122
2023-05-24T12:14:49.932Z,20.9573
2023-05-24T12:15:54.897Z,20.9742
2023-05-24T12:16:54.043Z,20.9984
2023-05-24T12:17:56.719Z,21.0329
2023-05-24T12:19:05.348Z,21.0297
2023-05-24T12:20:00.315Z,21.0603
2023-05-24T12:21:02.237Z,21.0490
2023-05-24T12:22:04.284Z,21.0251
2023-05-24T12:23:06.317Z,21.0142
2023-05-24T12:24:08.418Z,20.9801
2023-05-24T12:25:10.465Z,20.9676
2023-05-24T12:26:12.448Z,20.9773
2023-05-24T12:27:14.529Z,20.9711
2023-05-24T12:28:16.554Z,20.9826
2023-05-24T12:29:18.805Z,20.9401
2023-05-24T12:30:20.642Z,20.9473
2023-05-24T12:31:22.697Z,20.9500
2023-05-24T12:32:24.791Z,20.9407
2023-05-24T12:33:26.781Z,20.9157
2023-05-24T12:34:28.847Z,20.9198
2023-05-24T12:35:30.884Z,20.9039
2023-05-24T12:36:32.941Z,20.9048
2023-05-24T12:37:34.950Z,20.8436
2023-05-24T12:38:37.009Z,20.8082
2023-05-24T12:39:39.141Z,20.8501
2023-05-24T12:40:41.354Z,20.8824
2023-05-24T12:41:43.239Z,20.8920
2023-05-24T12:42:45.335Z,20.8846
2023-05-24T12:43:47.314Z,20.8717
2023-05-24T12:44:49.377Z,20.8918
2023-05-24T12:45:53.604Z,20.8838
2023-05-24T12:46:53.539Z,20.8528
2023-05-24T12:47:55.526Z,20.8972
2023-05-24T12:48:57.545Z,20.8701
2023-05-24T12:49:59.732Z,20.9224
2023-05-24T12:51:01.697Z,20.8672
2023-05-24T12:52:03.693Z,20.8514
2023-05-24T12:53:05.745Z,20.8314
2023-05-24T12:54:07.822Z,20.8454
2023-05-24T12:55:09.985Z,20.8310
2023-05-24T12:56:11.949Z,20.8481
2023-05-24T12:57:13.981Z,20.8649
2023-05-24T12:58:15.986Z,20.8604
2023-05-24T12:59:18.062Z,20.8583
2023-05-24T13:00:20.055Z,20.7581
2023-05-24T13:01:22.366Z,20.7595
2023-05-24T13:02:24.176Z,20.7869
2023-05-24T13:03:26.189Z,20.8103
2023-05-24T13:04:28.264Z,20.7986
2023-05-24T13:05:30.403Z,20.8117
2023-05-24T13:06:32.334Z,20.8325
2023-05-24T13:07:34.454Z,20.8421
2023-05-24T13:08:38.116Z,20.8544
2023-05-24T13:09:38.506Z,20.8195
2023-05-24T13:10:40.654Z,20.8485
2023-05-24T13:11:42.592Z,20.8043
2023-05-24T13:12:44.619Z,20.7889
2023-05-24T13:13:47.133Z,20.8175
2023-05-24T13:14:50.679Z,20.8351
2023-05-24T13:15:50.759Z,20.8684
2023-05-24T13:16:53.073Z,20.8407
2023-05-24T13:17:54.998Z,20.8526
2023-05-24T13:18:56.924Z,20.8551
2023-05-24T13:20:01.726Z,20.8723
2023-05-24T13:21:00.993Z,20.8493
2023-05-24T13:22:03.062Z,20.8536
2023-05-24T13:23:05.111Z,20.8735
2023-05-24T13:24:07.102Z,20.8370
2023-05-24T13:25:09.157Z,20.8388
2023-05-24T13:26:11.239Z,20.8208
2023-05-24T13:27:13.289Z,20.8086
2023-05-24T13:28:15.324Z,20.8080
2023-05-24T13:29:34.181Z,20.7567
2023-05-24T13:30:19.418Z,20.7423
2023-05-24T13:31:21.488Z,20.7351
2023-05-24T13:32:23.574Z,20.7213
2023-05-24T13:33:25.530Z,20.7503
2023-05-24T13:34:27.582Z,20.6737
2023-05-24T13:35:29.620Z,20.6552
2023-05-24T13:36:31.672Z,20.7074
2023-05-24T13:37:33.754Z,20.7491
2023-05-24T13:38:35.769Z,20.7220
2023-05-24T13:39:37.835Z,20.7372
2023-05-24T13:40:41.777Z,20.7819
2023-05-24T13:41:42.174Z,20.7881
2023-05-24T13:42:44.017Z,20.8828
2023-05-24T13:43:45.985Z,20.9015
2023-05-24T13:44:48.032Z,20.9557
2023-05-24T13:45:50.070Z,20.9929
2023-05-24T13:46:52.165Z,21.0163
2023-05-24T13:47:54.216Z,21.0366
2023-05-24T13:48:56.247Z,21.0430
2023-05-24T13:49:58.241Z,21.0036
2023-05-24T13:51:00.301Z,20.9280
2023-05-24T13:52:02.389Z,21.0103
2023-05-24T13:53:04.414Z,20.9728
2023-05-24T13:54:06.437Z,21.0366
2023-05-24T13:55:08.530Z,21.0878
2023-05-24T13:56:10.516Z,21.1223
2023-05-24T13:57:12.652Z,21.1157
2023-05-24T13:58:14.602Z,21.0449
2023-05-24T13:59:16.735Z,21.1340
2023-05-24T14:00:18.737Z,21.1677
2023-05-24T14:01:20.932Z,21.1726
2023-05-24T14:02:22.848Z,21.1977
2023-05-24T14:03:24.835Z,21.2205
2023-05-24T14:04:26.884Z,21.2268
2023-05-24T14:05:28.969Z,21.2330
2023-05-24T14:06:30.987Z,21.2603
2023-05-24T14:07:33.087Z,21.2291
2023-05-24T14:08:35.097Z,21.2112
2023-05-24T14:09:37.217Z,21.2266
2023-05-24T14:10:39.220Z,21.2118
2023-05-24T14:11:41.348Z,21.2147
2023-05-24T14:12:43.287Z,21.1747
2023-05-24T14:15:49.520Z,21.1038
2023-05-24T14:16:51.453Z,21.0861
2023-05-24T14:17:53.605Z,21.0286
2023-05-24T14:18:55.553Z,20.9824
2023-05-24T14:19:57.750Z,20.9454
2023-05-24T14:20:59.655Z,20.8859
2023-05-24T14:22:01.731Z,20.8062
2023-05-24T14:23:03.932Z,20.8813
2023-05-24T14:24:05.809Z,20.9276
2023-05-24T14:25:07.825Z,20.9771
2023-05-24T14:26:09.935Z,20.9578
2023-05-24T14:27:11.907Z,20.9621
2023-05-24T14:28:14.016Z,20.9600
2023-05-24T14:29:16.084Z,20.9997
2023-05-24T14:30:18.125Z,21.0138
2023-05-24T14:31:20.139Z,21.0237
2023-05-24T14:32:22.386Z,21.0278
2023-05-24T14:33:24.180Z,21.0087
2023-05-24T14:34:26.280Z,20.9949
2023-05-24T14:35:28.313Z,21.0288
2023-05-24T14:36:30.407Z,21.0323
2023-05-24T14:37:32.457Z,21.0097
2023-05-24T14:38:34.418Z,21.0270
2023-05-24T14:39:36.477Z,20.9204
2023-05-24T14:40:39.051Z,20.9491
2023-05-24T14:41:40.585Z,20.9647
2023-05-24T14:42:42.605Z,20.9528
2023-05-24T14:43:44.663Z,20.9734
2023-05-24T14:44:46.716Z,21.0052
2023-05-24T14:45:49.094Z,21.0034
2023-05-24T14:46:52.007Z,21.0420
2023-05-24T14:47:52.909Z,21.0586
2023-05-24T14:48:54.919Z,20.9970
2023-05-24T14:49:56.923Z,20.9861
2023-05-24T14:50:58.993Z,21.0471
2023-05-24T14:52:01.089Z,21.0409
2023-05-24T14:53:03.093Z,21.0566
2023-05-24T14:54:05.180Z,21.0679
2023-05-24T14:55:07.215Z,21.0779
2023-05-24T14:56:09.314Z,21.0568
2023-05-24T14:57:11.313Z,21.0171
2023-05-24T14:58:13.346Z,20.9900
2023-05-24T14:59:15.369Z,20.9781
2023-05-24T15:00:19.784Z,20.9705
2023-05-24T15:01:19.526Z,20.9894
2023-05-24T15:02:21.673Z,20.9734
2023-05-24T15:03:23.717Z,20.9504
2023-05-24T15:04:25.617Z,20.9500
2023-05-24T15:05:27.660Z,20.9875
2023-05-24T15:06:29.729Z,20.9935
2023-05-24T15:07:31.797Z,21.0091
2023-05-24T15:08:33.873Z,21.0290
2023-05-24T15:09:35.826Z,21.0073
2023-05-24T15:10:37.939Z,21.0375
2023-05-24T15:11:40.035Z,21.0578
2023-05-24T15:12:42.057Z,21.0475
2023-05-24T15:13:44.056Z,20.9797
2023-05-24T15:14:46.089Z,20.9528
2023-05-24T15:15:48.130Z,20.9333
2023-05-24T15:16:50.232Z,20.9865
2023-05-24T15:17:52.290Z,20.9995
2023-05-24T15:18:54.283Z,20.9875
2023-05-24T15:19:56.337Z,20.9933
2023-05-24T15:20:58.422Z,21.0034
2023-05-24T15:22:00.534Z,20.9947
2023-05-24T15:23:02.439Z,20.9463
2023-05-24T15:24:04.517Z,20.8501
2023-05-24T15:25:06.570Z,20.8468
2023-05-24T15:26:08.636Z,20.8565
2023-05-24T15:27:10.741Z,20.8263
2023-05-24T15:28:12.806Z,20.7741
2023-05-24T15:29:14.736Z,20.6745
2023-05-24T15:30:16.827Z,20.5936
2023-05-24T15:31:18.867Z,20.5589
2023-05-24T15:32:20.864Z,20.5932
2023-05-24T15:33:23.005Z,20.6338
2023-05-24T15:34:24.976Z,20.7296
2023-05-24T15:35:27.020Z,20.7688
2023-05-24T15:36:29.087Z,20.7825
2023-05-24T15:37:31.151Z,20.8053
2023-05-24T15:38:33.164Z,20.7521
2023-05-24T15:39:35.204Z,20.6679
2023-05-24T15:40:37.247Z,20.6716
2023-05-24T15:41:39.336Z,20.6628
2023-05-24T15:42:41.469Z,20.4586
2023-05-24T15:43:43.426Z,20.5901
2023-05-24T15:44:45.440Z,20.7178
2023-05-24T15:45:47.493Z,20.8193
2023-05-24T15:46:49.606Z,20.8959
2023-05-24T15:47:51.682Z,20.9224
2023-05-24T15:48:53.657Z,20.9208
2023-05-24T15:49:55.754Z,20.8968
2023-05-24T15:51:25.693Z,20.8503
2023-05-24T15:52:04.329Z,20.8563
2023-05-24T15:53:02.069Z,20.8561
2023-05-24T15:54:03.921Z,20.8894
2023-05-24T15:55:05.944Z,20.9050
2023-05-24T15:56:08.064Z,20.8526
2023-05-24T15:57:10.079Z,20.7464
2023-05-24T15:58:12.155Z,20.7585
2023-05-24T15:59:14.191Z,20.8413
2023-05-24T16:00:16.224Z,20.9235
2023-05-24T16:01:18.339Z,20.8992
2023-05-24T16:02:21.616Z,20.9450
2023-05-24T16:03:22.505Z,20.9643
2023-05-24T16:04:24.395Z,20.9762
2023-05-24T16:05:26.567Z,20.9011
2023-05-24T16:06:28.498Z,20.9126
2023-05-24T16:07:30.523Z,20.9440
2023-05-24T16:08:32.601Z,20.9808
2023-05-24T16:09:34.641Z,20.9463
2023-05-24T16:10:36.663Z,20.9576
2023-05-24T16:11:38.710Z,20.8963
2023-05-24T16:12:40.888Z,20.8945
2023-05-24T16:13:42.825Z,20.8479
2023-05-24T16:14:44.910Z,20.8618
2023-05-24T16:15:47.005Z,20.8396
2023-05-24T16:16:49.078Z,20.8415
2023-05-24T16:17:51.148Z,20.8733
2023-05-24T16:18:53.099Z,20.9089
2023-05-24T16:19:55.311Z,20.9736
2023-05-24T16:20:57.311Z,20.9880
2023-05-24T16:21:59.237Z,21.0783
2023-05-24T16:23:01.266Z,21.1188
2023-05-24T16:24:03.336Z,21.0744
2023-05-24T16:25:05.357Z,21.0720
2023-05-24T16:26:07.406Z,20.9968
2023-05-24T16:27:09.526Z,21.1718
2023-05-24T16:28:11.579Z,21.1995
2023-05-24T16:29:13.579Z,21.1812
2023-05-24T16:30:15.731Z,21.1919
2023-05-24T16:31:17.755Z,21.1839
2023-05-24T16:32:19.827Z,21.0985
2023-05-24T16:33:21.763Z,21.0983
2023-05-24T16:34:23.820Z,21.1215
2023-05-24T16:35:25.915Z,21.1141
2023-05-24T16:36:27.865Z,21.0623
2023-05-24T16:37:29.947Z,21.0666
2023-05-24T16:38:33.220Z,21.0845
2023-05-24T16:39:34.105Z,21.0613
2023-05-24T16:40:36.106Z,20.9859
2023-05-24T16:41:38.378Z,20.9719
2023-05-24T16:42:40.182Z,20.9013
2023-05-24T16:43:42.419Z,20.8826
2023-05-24T16:44:44.572Z,20.8472
2023-05-24T16:45:46.462Z,20.7975
2023-05-24T16:46:48.454Z,20.7293
2023-05-24T16:47:50.544Z,20.7298
2023-05-24T16:48:52.576Z,20.7443
2023-05-24T16:49:54.623Z,20.7441
2023-05-24T16:50:56.752Z,20.7700
2023-05-24T16:51:58.832Z,20.7279
2023-05-24T16:53:00.809Z,20.7328
2023-05-24T16:54:02.793Z,20.6846
2023-05-24T16:55:04.900Z,20.7144
2023-05-24T16:56:07.022Z,20.6959
2023-05-24T16:57:09.243Z,20.6983
2023-05-24T16:58:11.002Z,20.7351
2023-05-24T16:59:13.273Z,20.6856
2023-05-24T17:00:15.106Z,20.6911
2023-05-24T17:01:17.191Z,20.7628
2023-05-24T17:02:19.189Z,20.8244
2023-05-24T17:03:21.330Z,20.8076